sensor_id;sensor_type;location;lat;lon;timestamp;P1;durP1;ratioP1;P2;durP2;ratioP2
15677;SDS011;7939;50.814;6.368;2022-08-20T00:00:35;2.28;;;2.03;;
15677;SDS011;7939;50.814;6.368;2022-08-20T00:03:08;2.88;;;2.40;;
15677;SDS011;7939;50.814;6.368;2022-08-20T00:05:40;2.17;;;1.98;;
15677;SDS011;7939;50.814;6.368;2022-08-20T00:08:09;2.88;;;2.33;;
15677;SDS011;7939;50.814;6.368;2022-08-20T00:10:37;2.55;;;2.35;;
15677;SDS011;7939;50.814;6.368;2022-08-20T00:13:07;2.50;;;2.30;;
15677;SDS011;7939;50.814;6.368;2022-08-20T00:15:37;2.28;;;2.08;;
15677;SDS011;7939;50.814;6.368;2022-08-20T00:18:05;2.10;;;1.88;;
15677;SDS011;7939;50.814;6.368;2022-08-20T00:20:33;2.20;;;1.90;;
15677;SDS011;7939;50.814;6.368;2022-08-20T00:23:02;3.17;;;1.70;;
15677;SDS011;7939;50.814;6.368;2022-08-20T00:25:30;2.53;;;2.30;;
15677;SDS011;7939;50.814;6.368;2022-08-20T00:27:57;2.40;;;2.20;;
15677;SDS011;7939;50.814;6.368;2022-08-20T00:30:25;3.22;;;2.47;;
15677;SDS011;7939;50.814;6.368;2022-08-20T00:32:54;2.45;;;2.28;;
15677;SDS011;7939;50.814;6.368;2022-08-20T00:35:23;2.67;;;2.47;;
15677;SDS011;7939;50.814;6.368;2022-08-20T00:37:52;2.35;;;2.15;;
15677;SDS011;7939;50.814;6.368;2022-08-20T00:40:24;3.00;;;2.70;;
15677;SDS011;7939;50.814;6.368;2022-08-20T00:42:54;2.15;;;1.98;;
15677;SDS011;7939;50.814;6.368;2022-08-20T00:45:23;2.53;;;2.33;;
15677;SDS011;7939;50.814;6.368;2022-08-20T00:47:51;2.53;;;2.33;;
15677;SDS011;7939;50.814;6.368;2022-08-20T00:50:23;2.40;;;2.20;;
15677;SDS011;7939;50.814;6.368;2022-08-20T00:52:54;2.70;;;2.50;;
15677;SDS011;7939;50.814;6.368;2022-08-20T00:55:22;2.95;;;2.22;;
15677;SDS011;7939;50.814;6.368;2022-08-20T00:57:52;2.38;;;2.17;;
15677;SDS011;7939;50.814;6.368;2022-08-20T01:00:24;3.13;;;2.50;;
15677;SDS011;7939;50.814;6.368;2022-08-20T01:02:53;2.92;;;2.63;;
15677;SDS011;7939;50.814;6.368;2022-08-20T01:05:22;2.55;;;2.35;;
15677;SDS011;7939;50.814;6.368;2022-08-20T01:07:49;3.38;;;2.20;;
15677;SDS011;7939;50.814;6.368;2022-08-20T01:10:19;2.47;;;2.13;;
15677;SDS011;7939;50.814;6.368;2022-08-20T01:12:48;2.88;;;2.67;;
15677;SDS011;7939;50.814;6.368;2022-08-20T01:15:16;2.85;;;2.50;;
15677;SDS011;7939;50.814;6.368;2022-08-20T01:17:48;2.20;;;2.00;;
15677;SDS011;7939;50.814;6.368;2022-08-20T01:20:17;2.15;;;1.98;;
15677;SDS011;7939;50.814;6.368;2022-08-20T01:22:52;2.70;;;2.50;;
15677;SDS011;7939;50.814;6.368;2022-08-20T01:25:44;2.20;;;2.00;;
15677;SDS011;7939;50.814;6.368;2022-08-20T01:28:13;2.33;;;1.92;;
15677;SDS011;7939;50.814;6.368;2022-08-20T01:30:44;2.90;;;2.10;;
15677;SDS011;7939;50.814;6.368;2022-08-20T01:33:11;2.30;;;2.20;;
15677;SDS011;7939;50.814;6.368;2022-08-20T01:35:39;2.33;;;2.13;;
15677;SDS011;7939;50.814;6.368;2022-08-20T01:38:08;2.20;;;2.03;;
15677;SDS011;7939;50.814;6.368;2022-08-20T01:43:37;2.70;;;2.50;;
15677;SDS011;7939;50.814;6.368;2022-08-20T01:46:05;2.30;;;2.10;;
15677;SDS011;7939;50.814;6.368;2022-08-20T01:48:32;2.72;;;2.42;;
15677;SDS011;7939;50.814;6.368;2022-08-20T01:51:01;2.47;;;2.17;;
15677;SDS011;7939;50.814;6.368;2022-08-20T01:53:32;5.07;;;2.42;;
15677;SDS011;7939;50.814;6.368;2022-08-20T01:56:03;2.67;;;2.25;;
15677;SDS011;7939;50.814;6.368;2022-08-20T01:58:33;3.22;;;2.55;;
15677;SDS011;7939;50.814;6.368;2022-08-20T02:01:02;3.42;;;2.95;;
15677;SDS011;7939;50.814;6.368;2022-08-20T02:03:29;3.92;;;3.05;;
15677;SDS011;7939;50.814;6.368;2022-08-20T02:05:58;3.00;;;2.70;;
15677;SDS011;7939;50.814;6.368;2022-08-20T02:08:25;3.40;;;3.10;;
15677;SDS011;7939;50.814;6.368;2022-08-20T02:10:52;3.80;;;2.97;;
15677;SDS011;7939;50.814;6.368;2022-08-20T02:13:21;4.55;;;3.30;;
15677;SDS011;7939;50.814;6.368;2022-08-20T02:15:49;4.75;;;4.35;;
15677;SDS011;7939;50.814;6.368;2022-08-20T02:18:15;5.18;;;4.57;;
15677;SDS011;7939;50.814;6.368;2022-08-20T02:20:42;4.70;;;4.20;;
15677;SDS011;7939;50.814;6.368;2022-08-20T02:23:11;4.40;;;3.70;;
15677;SDS011;7939;50.814;6.368;2022-08-20T02:25:39;5.18;;;4.18;;
15677;SDS011;7939;50.814;6.368;2022-08-20T02:28:09;6.03;;;4.63;;
15677;SDS011;7939;50.814;6.368;2022-08-20T02:30:40;5.60;;;5.07;;
15677;SDS011;7939;50.814;6.368;2022-08-20T02:33:10;4.90;;;4.45;;
15677;SDS011;7939;50.814;6.368;2022-08-20T02:35:39;7.22;;;5.28;;
15677;SDS011;7939;50.814;6.368;2022-08-20T02:38:07;7.57;;;6.30;;
15677;SDS011;7939;50.814;6.368;2022-08-20T02:40:34;6.53;;;5.63;;
15677;SDS011;7939;50.814;6.368;2022-08-20T02:43:01;7.38;;;4.70;;
15677;SDS011;7939;50.814;6.368;2022-08-20T02:45:29;6.60;;;5.93;;
15677;SDS011;7939;50.814;6.368;2022-08-20T02:48:03;6.65;;;5.15;;
15677;SDS011;7939;50.814;6.368;2022-08-20T02:50:30;7.72;;;5.45;;
15677;SDS011;7939;50.814;6.368;2022-08-20T02:52:56;9.30;;;6.93;;
15677;SDS011;7939;50.814;6.368;2022-08-20T02:55:23;9.07;;;6.40;;
15677;SDS011;7939;50.814;6.368;2022-08-20T02:57:52;8.25;;;6.50;;
15677;SDS011;7939;50.814;6.368;2022-08-20T03:00:19;7.82;;;6.55;;
15677;SDS011;7939;50.814;6.368;2022-08-20T03:02:47;7.65;;;6.70;;
15677;SDS011;7939;50.814;6.368;2022-08-20T03:05:15;8.05;;;6.30;;
15677;SDS011;7939;50.814;6.368;2022-08-20T03:07:42;7.65;;;5.72;;
15677;SDS011;7939;50.814;6.368;2022-08-20T03:10:10;9.65;;;7.13;;
15677;SDS011;7939;50.814;6.368;2022-08-20T03:12:37;7.95;;;6.53;;
15677;SDS011;7939;50.814;6.368;2022-08-20T03:15:04;8.70;;;7.32;;
15677;SDS011;7939;50.814;6.368;2022-08-20T03:17:31;11.63;;;7.38;;
15677;SDS011;7939;50.814;6.368;2022-08-20T03:19:58;8.90;;;7.57;;
15677;SDS011;7939;50.814;6.368;2022-08-20T03:22:26;8.68;;;6.85;;
15677;SDS011;7939;50.814;6.368;2022-08-20T03:24:53;8.95;;;7.85;;
15677;SDS011;7939;50.814;6.368;2022-08-20T03:27:19;8.75;;;7.85;;
15677;SDS011;7939;50.814;6.368;2022-08-20T03:29:46;8.55;;;7.03;;
15677;SDS011;7939;50.814;6.368;2022-08-20T03:32:12;9.63;;;6.88;;
15677;SDS011;7939;50.814;6.368;2022-08-20T03:34:39;9.25;;;7.55;;
15677;SDS011;7939;50.814;6.368;2022-08-20T03:37:05;10.48;;;8.07;;
15677;SDS011;7939;50.814;6.368;2022-08-20T03:39:33;11.27;;;6.95;;
15677;SDS011;7939;50.814;6.368;2022-08-20T03:42:00;9.15;;;7.88;;
15677;SDS011;7939;50.814;6.368;2022-08-20T03:44:27;9.70;;;7.97;;
15677;SDS011;7939;50.814;6.368;2022-08-20T03:46:54;9.98;;;8.00;;
15677;SDS011;7939;50.814;6.368;2022-08-20T03:49:20;10.70;;;7.38;;
15677;SDS011;7939;50.814;6.368;2022-08-20T03:51:48;11.25;;;8.20;;
15677;SDS011;7939;50.814;6.368;2022-08-20T03:54:14;10.85;;;7.97;;
15677;SDS011;7939;50.814;6.368;2022-08-20T03:56:43;10.02;;;8.13;;
15677;SDS011;7939;50.814;6.368;2022-08-20T03:59:09;10.65;;;8.23;;
15677;SDS011;7939;50.814;6.368;2022-08-20T04:01:36;9.60;;;8.13;;
15677;SDS011;7939;50.814;6.368;2022-08-20T04:04:03;9.82;;;8.40;;
15677;SDS011;7939;50.814;6.368;2022-08-20T04:06:29;11.50;;;8.52;;
15677;SDS011;7939;50.814;6.368;2022-08-20T04:08:56;9.52;;;8.27;;
15677;SDS011;7939;50.814;6.368;2022-08-20T04:11:23;9.27;;;8.27;;
15677;SDS011;7939;50.814;6.368;2022-08-20T04:13:51;8.90;;;7.90;;
15677;SDS011;7939;50.814;6.368;2022-08-20T04:16:17;11.52;;;8.63;;
15677;SDS011;7939;50.814;6.368;2022-08-20T04:18:45;13.70;;;9.27;;
15677;SDS011;7939;50.814;6.368;2022-08-20T04:21:12;9.38;;;7.28;;
15677;SDS011;7939;50.814;6.368;2022-08-20T04:23:39;10.75;;;7.95;;
15677;SDS011;7939;50.814;6.368;2022-08-20T04:26:06;12.38;;;8.48;;
15677;SDS011;7939;50.814;6.368;2022-08-20T04:28:33;11.68;;;8.23;;
15677;SDS011;7939;50.814;6.368;2022-08-20T04:31:01;10.95;;;9.00;;
15677;SDS011;7939;50.814;6.368;2022-08-20T04:33:28;9.43;;;8.30;;
15677;SDS011;7939;50.814;6.368;2022-08-20T04:35:56;9.70;;;8.23;;
15677;SDS011;7939;50.814;6.368;2022-08-20T04:38:25;8.73;;;7.47;;
15677;SDS011;7939;50.814;6.368;2022-08-20T04:40:52;9.68;;;7.10;;
15677;SDS011;7939;50.814;6.368;2022-08-20T04:43:17;9.38;;;7.80;;
15677;SDS011;7939;50.814;6.368;2022-08-20T04:45:45;11.05;;;8.07;;
15677;SDS011;7939;50.814;6.368;2022-08-20T04:48:13;8.05;;;6.65;;
15677;SDS011;7939;50.814;6.368;2022-08-20T04:50:41;8.93;;;7.85;;
15677;SDS011;7939;50.814;6.368;2022-08-20T04:53:10;9.00;;;6.65;;
15677;SDS011;7939;50.814;6.368;2022-08-20T04:55:41;11.25;;;8.20;;
15677;SDS011;7939;50.814;6.368;2022-08-20T04:58:08;10.10;;;7.93;;
15677;SDS011;7939;50.814;6.368;2022-08-20T05:00:37;11.20;;;8.10;;
15677;SDS011;7939;50.814;6.368;2022-08-20T05:03:05;10.35;;;7.65;;
15677;SDS011;7939;50.814;6.368;2022-08-20T05:05:33;10.00;;;7.60;;
15677;SDS011;7939;50.814;6.368;2022-08-20T05:08:00;7.65;;;5.95;;
15677;SDS011;7939;50.814;6.368;2022-08-20T05:10:27;8.18;;;6.53;;
15677;SDS011;7939;50.814;6.368;2022-08-20T05:12:54;7.85;;;6.55;;
15677;SDS011;7939;50.814;6.368;2022-08-20T05:15:21;8.93;;;6.68;;
15677;SDS011;7939;50.814;6.368;2022-08-20T05:17:53;9.63;;;7.05;;
15677;SDS011;7939;50.814;6.368;2022-08-20T05:20:25;11.25;;;7.22;;
15677;SDS011;7939;50.814;6.368;2022-08-20T05:22:57;7.25;;;6.40;;
15677;SDS011;7939;50.814;6.368;2022-08-20T05:25:24;10.15;;;7.68;;
15677;SDS011;7939;50.814;6.368;2022-08-20T05:27:54;10.15;;;6.60;;
15677;SDS011;7939;50.814;6.368;2022-08-20T05:30:25;8.95;;;6.88;;
15677;SDS011;7939;50.814;6.368;2022-08-20T05:32:52;9.88;;;7.47;;
15677;SDS011;7939;50.814;6.368;2022-08-20T05:35:18;10.48;;;8.43;;
15677;SDS011;7939;50.814;6.368;2022-08-20T05:37:45;7.60;;;6.20;;
15677;SDS011;7939;50.814;6.368;2022-08-20T05:40:13;9.80;;;7.05;;
15677;SDS011;7939;50.814;6.368;2022-08-20T05:42:40;11.93;;;7.75;;
15677;SDS011;7939;50.814;6.368;2022-08-20T05:45:07;11.23;;;7.78;;
15677;SDS011;7939;50.814;6.368;2022-08-20T05:47:37;10.95;;;7.90;;
15677;SDS011;7939;50.814;6.368;2022-08-20T05:50:06;10.50;;;8.10;;
15677;SDS011;7939;50.814;6.368;2022-08-20T05:52:34;12.05;;;8.07;;
15677;SDS011;7939;50.814;6.368;2022-08-20T05:55:02;11.05;;;7.53;;
15677;SDS011;7939;50.814;6.368;2022-08-20T05:57:30;13.55;;;8.57;;
15677;SDS011;7939;50.814;6.368;2022-08-20T05:59:58;12.88;;;8.60;;
15677;SDS011;7939;50.814;6.368;2022-08-20T06:02:26;12.27;;;7.75;;
15677;SDS011;7939;50.814;6.368;2022-08-20T06:05:10;11.27;;;8.30;;
15677;SDS011;7939;50.814;6.368;2022-08-20T06:07:37;10.00;;;7.75;;
15677;SDS011;7939;50.814;6.368;2022-08-20T06:10:05;12.10;;;7.07;;
15677;SDS011;7939;50.814;6.368;2022-08-20T06:12:34;11.15;;;7.72;;
15677;SDS011;7939;50.814;6.368;2022-08-20T06:15:01;8.85;;;6.90;;
15677;SDS011;7939;50.814;6.368;2022-08-20T06:17:27;7.07;;;6.30;;
15677;SDS011;7939;50.814;6.368;2022-08-20T06:19:54;9.55;;;7.50;;
15677;SDS011;7939;50.814;6.368;2022-08-20T06:22:20;8.13;;;6.25;;
15677;SDS011;7939;50.814;6.368;2022-08-20T06:24:47;8.88;;;6.72;;
15677;SDS011;7939;50.814;6.368;2022-08-20T06:27:14;8.68;;;6.45;;
15677;SDS011;7939;50.814;6.368;2022-08-20T06:29:43;10.52;;;6.65;;
15677;SDS011;7939;50.814;6.368;2022-08-20T06:32:10;10.20;;;7.10;;
15677;SDS011;7939;50.814;6.368;2022-08-20T06:34:37;9.15;;;6.28;;
15677;SDS011;7939;50.814;6.368;2022-08-20T06:37:12;9.73;;;7.90;;
15677;SDS011;7939;50.814;6.368;2022-08-20T06:39:41;11.32;;;7.45;;
15677;SDS011;7939;50.814;6.368;2022-08-20T06:42:08;10.25;;;6.88;;
15677;SDS011;7939;50.814;6.368;2022-08-20T06:44:34;10.50;;;7.30;;
15677;SDS011;7939;50.814;6.368;2022-08-20T06:47:03;10.52;;;6.90;;
15677;SDS011;7939;50.814;6.368;2022-08-20T06:49:33;9.23;;;7.18;;
15677;SDS011;7939;50.814;6.368;2022-08-20T06:52:00;12.43;;;7.70;;
15677;SDS011;7939;50.814;6.368;2022-08-20T06:54:27;10.30;;;7.43;;
15677;SDS011;7939;50.814;6.368;2022-08-20T06:56:53;13.40;;;7.85;;
15677;SDS011;7939;50.814;6.368;2022-08-20T06:59:20;9.77;;;7.75;;
15677;SDS011;7939;50.814;6.368;2022-08-20T07:01:46;9.10;;;6.43;;
15677;SDS011;7939;50.814;6.368;2022-08-20T07:04:15;13.18;;;8.55;;
15677;SDS011;7939;50.814;6.368;2022-08-20T07:06:41;8.55;;;7.05;;
15677;SDS011;7939;50.814;6.368;2022-08-20T07:09:08;10.77;;;8.38;;
15677;SDS011;7939;50.814;6.368;2022-08-20T07:11:35;9.30;;;7.97;;
15677;SDS011;7939;50.814;6.368;2022-08-20T07:14:02;13.32;;;8.00;;
15677;SDS011;7939;50.814;6.368;2022-08-20T07:16:29;11.77;;;8.15;;
15677;SDS011;7939;50.814;6.368;2022-08-20T07:18:56;8.90;;;6.88;;
15677;SDS011;7939;50.814;6.368;2022-08-20T07:21:24;12.57;;;7.60;;
15677;SDS011;7939;50.814;6.368;2022-08-20T07:23:51;8.35;;;6.50;;
15677;SDS011;7939;50.814;6.368;2022-08-20T07:26:18;7.72;;;6.70;;
15677;SDS011;7939;50.814;6.368;2022-08-20T07:28:44;11.45;;;7.85;;
15677;SDS011;7939;50.814;6.368;2022-08-20T07:31:11;11.32;;;7.63;;
15677;SDS011;7939;50.814;6.368;2022-08-20T07:33:55;12.60;;;6.70;;
15677;SDS011;7939;50.814;6.368;2022-08-20T07:36:22;10.50;;;7.35;;
15677;SDS011;7939;50.814;6.368;2022-08-20T07:38:50;11.43;;;7.63;;
15677;SDS011;7939;50.814;6.368;2022-08-20T07:41:17;9.50;;;6.82;;
15677;SDS011;7939;50.814;6.368;2022-08-20T07:43:45;12.27;;;8.98;;
15677;SDS011;7939;50.814;6.368;2022-08-20T07:46:14;12.43;;;7.68;;
15677;SDS011;7939;50.814;6.368;2022-08-20T07:48:43;14.00;;;8.32;;
15677;SDS011;7939;50.814;6.368;2022-08-20T07:51:14;11.80;;;7.72;;
15677;SDS011;7939;50.814;6.368;2022-08-20T07:53:42;9.10;;;6.30;;
15677;SDS011;7939;50.814;6.368;2022-08-20T07:56:13;10.13;;;7.13;;
15677;SDS011;7939;50.814;6.368;2022-08-20T07:58:42;11.90;;;7.55;;
15677;SDS011;7939;50.814;6.368;2022-08-20T08:01:14;10.05;;;7.40;;
15677;SDS011;7939;50.814;6.368;2022-08-20T08:03:41;12.27;;;7.03;;
15677;SDS011;7939;50.814;6.368;2022-08-20T08:06:08;12.30;;;7.68;;
15677;SDS011;7939;50.814;6.368;2022-08-20T08:08:34;12.60;;;6.82;;
15677;SDS011;7939;50.814;6.368;2022-08-20T08:11:02;11.57;;;7.85;;
15677;SDS011;7939;50.814;6.368;2022-08-20T08:13:33;7.85;;;6.68;;
15677;SDS011;7939;50.814;6.368;2022-08-20T08:16:03;10.05;;;7.20;;
15677;SDS011;7939;50.814;6.368;2022-08-20T08:18:32;10.30;;;6.60;;
15677;SDS011;7939;50.814;6.368;2022-08-20T08:21:02;8.70;;;6.50;;
15677;SDS011;7939;50.814;6.368;2022-08-20T08:23:30;11.02;;;7.57;;
15677;SDS011;7939;50.814;6.368;2022-08-20T08:25:58;10.25;;;8.15;;
15677;SDS011;7939;50.814;6.368;2022-08-20T08:28:25;8.68;;;6.80;;
15677;SDS011;7939;50.814;6.368;2022-08-20T08:30:55;7.95;;;6.50;;
15677;SDS011;7939;50.814;6.368;2022-08-20T08:33:23;11.32;;;6.25;;
15677;SDS011;7939;50.814;6.368;2022-08-20T08:35:55;11.45;;;7.03;;
15677;SDS011;7939;50.814;6.368;2022-08-20T08:38:23;6.15;;;4.75;;
15677;SDS011;7939;50.814;6.368;2022-08-20T08:40:51;10.93;;;7.63;;
15677;SDS011;7939;50.814;6.368;2022-08-20T08:43:21;8.27;;;5.30;;
15677;SDS011;7939;50.814;6.368;2022-08-20T08:45:55;8.18;;;5.53;;
15677;SDS011;7939;50.814;6.368;2022-08-20T08:48:29;7.25;;;5.70;;
15677;SDS011;7939;50.814;6.368;2022-08-20T08:50:59;5.63;;;4.60;;
15677;SDS011;7939;50.814;6.368;2022-08-20T08:53:29;8.90;;;5.70;;
15677;SDS011;7939;50.814;6.368;2022-08-20T08:56:00;10.15;;;5.70;;
15677;SDS011;7939;50.814;6.368;2022-08-20T08:58:27;8.43;;;5.10;;
15677;SDS011;7939;50.814;6.368;2022-08-20T09:00:54;11.45;;;6.93;;
15677;SDS011;7939;50.814;6.368;2022-08-20T09:03:24;7.65;;;5.53;;
15677;SDS011;7939;50.814;6.368;2022-08-20T09:05:55;8.77;;;5.55;;
15677;SDS011;7939;50.814;6.368;2022-08-20T09:08:24;7.43;;;4.90;;
15677;SDS011;7939;50.814;6.368;2022-08-20T09:10:59;8.55;;;5.80;;
15677;SDS011;7939;50.814;6.368;2022-08-20T09:13:27;12.82;;;5.30;;
15677;SDS011;7939;50.814;6.368;2022-08-20T09:15:54;9.35;;;5.35;;
15677;SDS011;7939;50.814;6.368;2022-08-20T09:18:20;8.90;;;5.45;;
15677;SDS011;7939;50.814;6.368;2022-08-20T09:20:48;9.07;;;5.68;;
15677;SDS011;7939;50.814;6.368;2022-08-20T09:23:15;7.63;;;5.35;;
15677;SDS011;7939;50.814;6.368;2022-08-20T09:25:41;10.38;;;5.72;;
15677;SDS011;7939;50.814;6.368;2022-08-20T09:28:08;8.27;;;5.50;;
15677;SDS011;7939;50.814;6.368;2022-08-20T09:30:35;10.13;;;6.68;;
15677;SDS011;7939;50.814;6.368;2022-08-20T09:33:01;9.10;;;6.28;;
15677;SDS011;7939;50.814;6.368;2022-08-20T09:35:28;7.93;;;5.68;;
15677;SDS011;7939;50.814;6.368;2022-08-20T09:37:56;9.48;;;6.03;;
15677;SDS011;7939;50.814;6.368;2022-08-20T09:40:23;10.70;;;5.70;;
15677;SDS011;7939;50.814;6.368;2022-08-20T09:42:50;8.02;;;4.88;;
15677;SDS011;7939;50.814;6.368;2022-08-20T09:45:17;12.48;;;5.80;;
15677;SDS011;7939;50.814;6.368;2022-08-20T09:47:44;8.77;;;5.78;;
15677;SDS011;7939;50.814;6.368;2022-08-20T09:50:11;10.43;;;5.72;;
15677;SDS011;7939;50.814;6.368;2022-08-20T09:52:38;11.02;;;4.55;;
15677;SDS011;7939;50.814;6.368;2022-08-20T09:55:13;9.45;;;6.13;;
15677;SDS011;7939;50.814;6.368;2022-08-20T09:57:45;9.43;;;5.50;;
15677;SDS011;7939;50.814;6.368;2022-08-20T10:00:12;9.70;;;4.95;;
15677;SDS011;7939;50.814;6.368;2022-08-20T10:02:40;12.02;;;6.32;;
15677;SDS011;7939;50.814;6.368;2022-08-20T10:05:07;12.48;;;6.40;;
15677;SDS011;7939;50.814;6.368;2022-08-20T10:07:35;10.35;;;6.13;;
15677;SDS011;7939;50.814;6.368;2022-08-20T10:10:03;9.43;;;5.05;;
15677;SDS011;7939;50.814;6.368;2022-08-20T10:12:32;14.00;;;6.43;;
15677;SDS011;7939;50.814;6.368;2022-08-20T10:14:59;8.55;;;5.30;;
15677;SDS011;7939;50.814;6.368;2022-08-20T10:17:26;7.25;;;4.72;;
15677;SDS011;7939;50.814;6.368;2022-08-20T10:19:52;10.45;;;5.25;;
15677;SDS011;7939;50.814;6.368;2022-08-20T10:22:19;12.15;;;7.13;;
15677;SDS011;7939;50.814;6.368;2022-08-20T10:24:45;9.63;;;5.78;;
15677;SDS011;7939;50.814;6.368;2022-08-20T10:27:12;11.77;;;5.50;;
15677;SDS011;7939;50.814;6.368;2022-08-20T10:29:40;10.27;;;5.68;;
15677;SDS011;7939;50.814;6.368;2022-08-20T10:32:08;8.18;;;4.90;;
15677;SDS011;7939;50.814;6.368;2022-08-20T10:34:36;12.43;;;5.10;;
15677;SDS011;7939;50.814;6.368;2022-08-20T10:37:03;9.30;;;4.78;;
15677;SDS011;7939;50.814;6.368;2022-08-20T10:39:29;9.38;;;6.07;;
15677;SDS011;7939;50.814;6.368;2022-08-20T10:41:56;10.05;;;5.18;;
15677;SDS011;7939;50.814;6.368;2022-08-20T10:44:23;9.60;;;4.97;;
15677;SDS011;7939;50.814;6.368;2022-08-20T10:46:51;12.00;;;5.15;;
15677;SDS011;7939;50.814;6.368;2022-08-20T10:49:18;10.02;;;4.82;;
15677;SDS011;7939;50.814;6.368;2022-08-20T10:51:44;11.80;;;5.53;;
15677;SDS011;7939;50.814;6.368;2022-08-20T10:54:11;9.80;;;5.47;;
15677;SDS011;7939;50.814;6.368;2022-08-20T10:56:37;11.18;;;5.57;;
15677;SDS011;7939;50.814;6.368;2022-08-20T10:59:04;12.38;;;6.18;;
15677;SDS011;7939;50.814;6.368;2022-08-20T11:01:30;10.75;;;5.40;;
15677;SDS011;7939;50.814;6.368;2022-08-20T11:03:58;12.52;;;5.50;;
15677;SDS011;7939;50.814;6.368;2022-08-20T11:06:25;14.07;;;6.03;;
15677;SDS011;7939;50.814;6.368;2022-08-20T11:08:51;13.10;;;6.43;;
15677;SDS011;7939;50.814;6.368;2022-08-20T11:11:18;12.18;;;6.05;;
15677;SDS011;7939;50.814;6.368;2022-08-20T11:13:44;8.90;;;5.15;;
15677;SDS011;7939;50.814;6.368;2022-08-20T11:16:11;17.10;;;7.65;;
15677;SDS011;7939;50.814;6.368;2022-08-20T11:18:39;10.95;;;6.10;;
15677;SDS011;7939;50.814;6.368;2022-08-20T11:21:07;11.90;;;6.63;;
15677;SDS011;7939;50.814;6.368;2022-08-20T11:23:33;13.85;;;6.32;;
15677;SDS011;7939;50.814;6.368;2022-08-20T11:26:00;12.60;;;6.28;;
15677;SDS011;7939;50.814;6.368;2022-08-20T11:28:26;14.35;;;6.82;;
15677;SDS011;7939;50.814;6.368;2022-08-20T11:31:08;15.68;;;7.93;;
15677;SDS011;7939;50.814;6.368;2022-08-20T11:33:34;16.25;;;7.20;;
15677;SDS011;7939;50.814;6.368;2022-08-20T11:36:01;17.95;;;7.05;;
15677;SDS011;7939;50.814;6.368;2022-08-20T11:38:29;13.77;;;6.47;;
15677;SDS011;7939;50.814;6.368;2022-08-20T11:40:56;13.05;;;6.53;;
15677;SDS011;7939;50.814;6.368;2022-08-20T11:43:25;15.38;;;6.07;;
15677;SDS011;7939;50.814;6.368;2022-08-20T11:45:54;12.63;;;6.35;;
15677;SDS011;7939;50.814;6.368;2022-08-20T11:48:28;13.70;;;7.00;;
15677;SDS011;7939;50.814;6.368;2022-08-20T11:50:54;18.63;;;6.22;;
15677;SDS011;7939;50.814;6.368;2022-08-20T11:53:21;10.20;;;5.70;;
15677;SDS011;7939;50.814;6.368;2022-08-20T11:55:49;14.55;;;6.40;;
15677;SDS011;7939;50.814;6.368;2022-08-20T11:58:16;14.65;;;6.90;;
15677;SDS011;7939;50.814;6.368;2022-08-20T12:00:42;12.20;;;6.25;;
15677;SDS011;7939;50.814;6.368;2022-08-20T12:03:09;13.27;;;6.10;;
15677;SDS011;7939;50.814;6.368;2022-08-20T12:05:37;12.27;;;6.05;;
15677;SDS011;7939;50.814;6.368;2022-08-20T12:08:05;11.27;;;6.35;;
15677;SDS011;7939;50.814;6.368;2022-08-20T12:10:32;11.32;;;5.53;;
15677;SDS011;7939;50.814;6.368;2022-08-20T12:13:00;13.77;;;5.65;;
15677;SDS011;7939;50.814;6.368;2022-08-20T12:15:27;11.32;;;5.22;;
15677;SDS011;7939;50.814;6.368;2022-08-20T12:17:53;9.80;;;4.63;;
15677;SDS011;7939;50.814;6.368;2022-08-20T12:20:21;12.45;;;4.85;;
15677;SDS011;7939;50.814;6.368;2022-08-20T12:22:48;11.55;;;4.82;;
15677;SDS011;7939;50.814;6.368;2022-08-20T12:25:14;9.35;;;4.70;;
15677;SDS011;7939;50.814;6.368;2022-08-20T12:27:41;10.65;;;4.18;;
15677;SDS011;7939;50.814;6.368;2022-08-20T12:30:11;13.07;;;4.65;;
15677;SDS011;7939;50.814;6.368;2022-08-20T12:32:40;11.20;;;5.28;;
15677;SDS011;7939;50.814;6.368;2022-08-20T12:35:07;7.45;;;3.92;;
15677;SDS011;7939;50.814;6.368;2022-08-20T12:37:35;11.30;;;3.63;;
15677;SDS011;7939;50.814;6.368;2022-08-20T12:40:03;9.80;;;4.68;;
15677;SDS011;7939;50.814;6.368;2022-08-20T12:42:33;10.45;;;4.55;;
15677;SDS011;7939;50.814;6.368;2022-08-20T12:45:00;8.98;;;4.30;;
15677;SDS011;7939;50.814;6.368;2022-08-20T12:47:28;8.38;;;3.13;;
15677;SDS011;7939;50.814;6.368;2022-08-20T12:49:57;7.38;;;2.85;;
15677;SDS011;7939;50.814;6.368;2022-08-20T12:52:25;10.07;;;3.13;;
15677;SDS011;7939;50.814;6.368;2022-08-20T12:54:53;12.55;;;3.08;;
15677;SDS011;7939;50.814;6.368;2022-08-20T12:57:24;9.25;;;3.42;;
15677;SDS011;7939;50.814;6.368;2022-08-20T12:59:53;7.13;;;2.97;;
15677;SDS011;7939;50.814;6.368;2022-08-20T13:02:20;7.20;;;2.90;;
15677;SDS011;7939;50.814;6.368;2022-08-20T13:04:49;8.93;;;3.00;;
15677;SDS011;7939;50.814;6.368;2022-08-20T13:07:15;6.38;;;2.90;;
15677;SDS011;7939;50.814;6.368;2022-08-20T13:09:42;6.65;;;2.65;;
15677;SDS011;7939;50.814;6.368;2022-08-20T13:12:09;7.15;;;2.67;;
15677;SDS011;7939;50.814;6.368;2022-08-20T13:14:38;8.63;;;3.15;;
15677;SDS011;7939;50.814;6.368;2022-08-20T13:17:05;9.95;;;3.05;;
15677;SDS011;7939;50.814;6.368;2022-08-20T13:19:32;5.80;;;2.78;;
15677;SDS011;7939;50.814;6.368;2022-08-20T13:22:02;8.63;;;3.38;;
15677;SDS011;7939;50.814;6.368;2022-08-20T13:24:29;6.20;;;3.70;;
15677;SDS011;7939;50.814;6.368;2022-08-20T13:27:02;8.70;;;2.80;;
15677;SDS011;7939;50.814;6.368;2022-08-20T13:29:30;8.45;;;2.80;;
15677;SDS011;7939;50.814;6.368;2022-08-20T13:31:57;10.05;;;3.15;;
15677;SDS011;7939;50.814;6.368;2022-08-20T13:34:24;6.93;;;2.60;;
15677;SDS011;7939;50.814;6.368;2022-08-20T13:36:50;6.20;;;2.75;;
15677;SDS011;7939;50.814;6.368;2022-08-20T13:39:20;8.40;;;3.22;;
15677;SDS011;7939;50.814;6.368;2022-08-20T13:41:48;10.65;;;3.15;;
15677;SDS011;7939;50.814;6.368;2022-08-20T13:44:15;4.68;;;2.50;;
15677;SDS011;7939;50.814;6.368;2022-08-20T13:46:42;8.48;;;2.80;;
15677;SDS011;7939;50.814;6.368;2022-08-20T13:49:09;6.72;;;2.88;;
15677;SDS011;7939;50.814;6.368;2022-08-20T13:51:35;7.28;;;2.50;;
15677;SDS011;7939;50.814;6.368;2022-08-20T13:54:02;9.63;;;2.88;;
15677;SDS011;7939;50.814;6.368;2022-08-20T13:56:31;7.72;;;2.60;;
15677;SDS011;7939;50.814;6.368;2022-08-20T13:58:58;8.82;;;2.42;;
15677;SDS011;7939;50.814;6.368;2022-08-20T14:01:24;5.95;;;2.80;;
15677;SDS011;7939;50.814;6.368;2022-08-20T14:03:51;7.13;;;2.42;;
15677;SDS011;7939;50.814;6.368;2022-08-20T14:06:18;6.07;;;2.72;;
15677;SDS011;7939;50.814;6.368;2022-08-20T14:08:44;8.02;;;2.70;;
15677;SDS011;7939;50.814;6.368;2022-08-20T14:11:11;6.47;;;2.45;;
15677;SDS011;7939;50.814;6.368;2022-08-20T14:13:39;6.15;;;2.65;;
15677;SDS011;7939;50.814;6.368;2022-08-20T14:16:06;6.22;;;2.60;;
15677;SDS011;7939;50.814;6.368;2022-08-20T14:18:33;5.68;;;3.28;;
15677;SDS011;7939;50.814;6.368;2022-08-20T14:20:59;8.43;;;2.50;;
15677;SDS011;7939;50.814;6.368;2022-08-20T14:23:26;3.17;;;2.15;;
15677;SDS011;7939;50.814;6.368;2022-08-20T14:25:53;4.90;;;2.33;;
15677;SDS011;7939;50.814;6.368;2022-08-20T14:28:20;6.60;;;2.58;;
15677;SDS011;7939;50.814;6.368;2022-08-20T14:30:49;7.63;;;2.85;;
15677;SDS011;7939;50.814;6.368;2022-08-20T14:33:16;9.55;;;2.80;;
15677;SDS011;7939;50.814;6.368;2022-08-20T14:35:43;7.18;;;3.00;;
15677;SDS011;7939;50.814;6.368;2022-08-20T14:38:10;8.80;;;2.97;;
15677;SDS011;7939;50.814;6.368;2022-08-20T14:40:37;8.85;;;2.25;;
15677;SDS011;7939;50.814;6.368;2022-08-20T14:43:03;7.47;;;2.60;;
15677;SDS011;7939;50.814;6.368;2022-08-20T14:45:30;6.03;;;3.20;;
15677;SDS011;7939;50.814;6.368;2022-08-20T14:47:58;7.93;;;2.80;;
15677;SDS011;7939;50.814;6.368;2022-08-20T14:50:25;5.97;;;3.17;;
15677;SDS011;7939;50.814;6.368;2022-08-20T14:52:54;6.57;;;2.90;;
15677;SDS011;7939;50.814;6.368;2022-08-20T14:55:22;7.18;;;2.88;;
15677;SDS011;7939;50.814;6.368;2022-08-20T14:57:50;5.78;;;2.33;;
15677;SDS011;7939;50.814;6.368;2022-08-20T15:00:18;7.57;;;3.17;;
15677;SDS011;7939;50.814;6.368;2022-08-20T15:02:47;5.85;;;2.78;;